Time;durP1;ratioP1;P1;durP2;ratioP2;P2;SDS_P1;SDS_P2;PMS_P1;PMS_P2;Temp;Humidity;BMP_temperature;BMP_pressure;BME280_temperature;BME280_humidity;BME280_pressure;Samples;Min_cycle;Max_cycle;Signal;HPM_P1;HPM_P2
2022/07/01 00:00:13;;;;;;;10.20;7.00;;;;;;;23.04;52.03;96374.40;106721;1281;33153;-80
2022/07/01 00:03:05;;;;;;;8.60;6.90;;;;;;;23.10;52.28;96373.74;106717;1282;74690;-80
2022/07/01 00:05:36;;;;;;;10.80;8.50;;;;;;;23.16;52.76;96378.60;106798;1281;119033;-80
2022/07/01 00:08:08;;;;;;;8.80;7.40;;;;;;;23.16;53.23;96375.28;106822;1284;92510;-80
2022/07/01 00:10:42;;;;;;;8.50;7.60;;;;;;;23.14;53.39;96374.25;106830;1282;106949;-80
2022/07/01 00:13:13;;;;;;;7.80;6.70;;;;;;;23.16;53.30;96369.80;106974;1281;28861;-80
2022/07/01 00:15:44;;;;;;;8.50;6.90;;;;;;;23.16;53.10;96370.71;106798;1281;80237;-79
2022/07/01 00:18:15;;;;;;;10.60;7.50;;;;;;;23.15;53.59;96365.91;106811;1284;32913;-80
2022/07/01 00:20:48;;;;;;;7.40;6.20;;;;;;;23.16;52.78;96370.41;106837;1281;112492;-79
2022/07/01 00:23:22;;;;;;;9.90;6.90;;;;;;;23.12;52.38;96368.28;107009;1282;29854;-79
2022/07/01 00:25:55;;;;;;;7.10;6.00;;;;;;;23.07;52.13;96362.80;106754;1281;100943;-79
2022/07/01 00:28:27;;;;;;;9.80;6.40;;;;;;;23.05;51.99;96363.85;106748;1282;184442;-80
2022/07/01 00:30:58;;;;;;;9.80;6.10;;;;;;;23.03;51.91;96363.28;106947;1281;54293;-79
2022/07/01 00:33:29;;;;;;;7.00;6.20;;;;;;;23.00;51.82;96362.86;106842;1282;66034;-79
2022/07/01 00:36:01;;;;;;;7.50;6.70;;;;;;;22.99;52.31;96363.15;106951;1281;33034;-79
2022/07/01 00:38:32;;;;;;;9.30;6.90;;;;;;;22.99;52.49;96359.52;106757;1283;85088;-79
2022/07/01 00:41:03;;;;;;;8.30;7.20;;;;;;;22.97;52.74;96358.11;106956;1281;35440;-79
2022/07/01 00:43:39;;;;;;;9.90;7.10;;;;;;;22.92;52.92;96354.15;106802;1281;102736;-79
2022/07/01 00:46:13;;;;;;;10.10;7.50;;;;;;;22.89;52.93;96350.17;106805;1281;36523;-79
2022/07/01 00:48:45;;;;;;;9.40;7.00;;;;;;;22.83;53.17;96350.00;105428;1282;1841470;-79
2022/07/01 00:51:18;;;;;;;7.60;6.70;;;;;;;22.69;53.18;96352.86;106779;1281;114599;-79
2022/07/01 00:53:50;;;;;;;8.10;7.10;;;;;;;22.53;53.58;96352.30;106936;1281;86532;-79
2022/07/01 00:56:22;;;;;;;8.00;7.10;;;;;;;22.34;53.94;96357.77;106884;1282;104427;-80
2022/07/01 00:58:53;;;;;;;9.50;7.00;;;;;;;22.26;54.14;96353.55;106970;1281;36606;-80
2022/07/01 01:01:25;;;;;;;7.10;6.30;;;;;;;22.18;54.31;96356.19;106795;1281;115842;-80
2022/07/01 01:03:57;;;;;;;7.50;6.40;;;;;;;21.95;54.42;96360.36;106916;1281;45600;-79
2022/07/01 01:06:29;;;;;;;13.50;6.50;;;;;;;21.89;54.34;96360.10;106935;1281;36281;-79
2022/07/01 01:09:01;;;;;;;9.50;5.90;;;;;;;21.92;54.25;96357.68;106828;1283;103880;-80
2022/07/01 01:11:35;;;;;;;8.90;6.40;;;;;;;21.97;54.16;96351.31;106927;1282;36987;-79
2022/07/01 01:14:07;;;;;;;8.60;5.90;;;;;;;22.04;53.89;96348.34;106809;1284;125892;-80
2022/07/01 01:16:42;;;;;;;9.20;5.90;;;;;;;22.13;53.65;96348.07;106959;1284;39274;-80
2022/07/01 01:19:13;;;;;;;6.80;5.60;;;;;;;22.17;53.73;96346.60;106729;1283;152846;-79
2022/07/01 01:21:45;;;;;;;6.90;6.10;;;;;;;22.06;53.73;96347.55;106974;1282;53406;-79
2022/07/01 01:24:17;;;;;;;6.60;5.40;;;;;;;21.96;54.04;96343.27;106944;1283;74898;-79
2022/07/01 01:26:49;;;;;;;5.30;4.60;;;;;;;21.69;53.90;96346.23;106939;1284;66027;-80
2022/07/01 01:29:20;;;;;;;8.00;5.20;;;;;;;21.52;54.12;96346.04;106807;1284;140515;-79
2022/07/01 01:31:51;;;;;;;12.00;6.50;;;;;;;21.58;54.28;96345.39;106955;1284;77972;-79
2022/07/01 01:34:27;;;;;;;7.20;6.20;;;;;;;21.64;54.46;96342.34;106939;1281;31559;-79
2022/07/01 01:36:59;;;;;;;9.70;6.60;;;;;;;21.58;54.64;96346.02;106830;1284;68645;-79
2022/07/01 01:39:30;;;;;;;6.80;5.60;;;;;;;21.55;54.69;96347.66;106905;1282;39415;-79
2022/07/01 01:42:01;;;;;;;6.80;5.30;;;;;;;21.53;54.62;96345.90;106771;1281;118201;-79
2022/07/01 01:44:32;;;;;;;5.90;5.10;;;;;;;21.55;54.44;96347.42;106932;1284;35795;-79
2022/07/01 01:47:04;;;;;;;9.60;4.90;;;;;;;21.50;54.26;96353.86;106764;1284;99724;-79
2022/07/01 01:49:35;;;;;;;5.60;4.90;;;;;;;21.36;54.50;96350.59;106883;1282;95707;-79
2022/07/01 01:52:07;;;;;;;5.30;4.70;;;;;;;21.20;54.61;96349.52;106669;1284;184603;-79
2022/07/01 01:54:38;;;;;;;7.20;5.30;;;;;;;21.15;54.89;96356.12;106762;1284;96752;-79
2022/07/01 01:57:09;;;;;;;7.20;4.80;;;;;;;21.12;55.01;96353.73;106847;1284;78885;-79
2022/07/01 01:59:40;;;;;;;7.60;4.90;;;;;;;21.13;55.05;96353.61;106459;1284;99916;-79
2022/07/01 02:02:12;;;;;;;6.40;4.70;;;;;;;21.09;55.11;96354.89;106669;1283;34990;-79
2022/07/01 02:04:46;;;;;;;5.40;4.50;;;;;;;21.07;54.87;96353.77;106629;1281;53438;-79
2022/07/01 02:07:17;;;;;;;5.30;4.60;;;;;;;21.03;54.82;96357.00;106516;1284;111253;-79
2022/07/01 02:09:48;;;;;;;6.20;4.70;;;;;;;20.95;55.00;96355.14;106754;1284;33769;-79
2022/07/01 02:12:19;;;;;;;4.70;4.20;;;;;;;20.90;55.13;96355.17;106613;1282;88025;-79
2022/07/01 02:14:52;;;;;;;5.60;4.60;;;;;;;20.86;55.28;96354.70;106656;1284;46801;-79
2022/07/01 02:17:25;;;;;;;4.70;4.20;;;;;;;20.82;55.45;96356.36;106448;1284;133458;-79
2022/07/01 02:19:56;;;;;;;6.20;5.40;;;;;;;20.79;55.99;96357.59;106528;1284;106671;-79
2022/07/01 02:22:28;;;;;;;7.10;6.00;;;;;;;20.95;56.07;96359.73;106898;1281;41293;-79
2022/07/01 02:24:59;;;;;;;8.50;5.30;;;;;;;21.12;55.88;96358.13;106680;1284;92709;-79
2022/07/01 02:27:31;;;;;;;6.40;5.00;;;;;;;21.18;55.22;96359.10;106935;1284;33647;-79
2022/07/01 02:30:03;;;;;;;5.50;4.50;;;;;;;21.21;54.65;96360.08;106487;1282;110054;-79
2022/07/01 02:32:36;;;;;;;5.40;4.30;;;;;;;21.20;54.63;96363.53;106604;1281;87510;-79
2022/07/01 02:35:11;;;;;;;5.40;4.10;;;;;;;21.11;54.77;96362.36;106595;1284;31794;-79
2022/07/01 02:37:42;;;;;;;5.10;3.80;;;;;;;21.00;54.50;96368.48;106556;1284;99392;-79
2022/07/01 02:40:14;;;;;;;5.00;4.10;;;;;;;20.94;54.51;96369.02;106581;1284;32016;-79
2022/07/01 02:42:46;;;;;;;8.40;4.80;;;;;;;20.96;54.67;96375.17;106337;1282;135250;-79
2022/07/01 02:45:17;;;;;;;6.20;4.40;;;;;;;20.82;55.33;96378.23;106661;1282;37637;-79
2022/07/01 02:47:51;;;;;;;4.80;4.10;;;;;;;20.60;55.67;96377.19;106533;1284;73877;-79
2022/07/01 02:50:22;;;;;;;6.50;4.80;;;;;;;20.42;55.87;96376.70;106727;1284;35807;-79
2022/07/01 02:52:55;;;;;;;6.20;5.60;;;;;;;20.51;56.08;96375.44;106865;1283;47872;-79
2022/07/01 02:55:28;;;;;;;7.20;6.00;;;;;;;20.69;56.80;96377.25;106773;1283;101986;-79
2022/07/01 02:58:00;;;;;;;8.70;6.50;;;;;;;20.87;56.91;96375.42;105309;1281;1830376;-79
2022/07/01 03:00:30;;;;;;;;;;;;;;;20.91;57.48;96371.67;106429;1284;85740;-79
2022/07/01 03:03:01;;;;;;;7.80;6.90;;;;;;;20.88;57.84;96373.00;106477;1283;33163;-79
2022/07/01 03:05:34;;;;;;;8.50;7.10;;;;;;;20.85;58.23;96369.61;106561;1284;60493;-79
2022/07/01 03:08:06;;;;;;;8.70;7.30;;;;;;;20.77;58.72;96372.35;106506;1284;32249;-79
2022/07/01 03:10:37;;;;;;;10.10;7.00;;;;;;;20.68;58.76;96372.22;106475;1284;105613;-79
2022/07/01 03:13:08;;;;;;;6.80;6.10;;;;;;;20.64;58.71;96368.66;106445;1283;50151;-79
2022/07/01 03:15:39;;;;;;;7.10;5.90;;;;;;;20.66;58.47;96372.30;106366;1284;101319;-79
2022/07/01 03:18:10;;;;;;;6.50;5.60;;;;;;;20.70;58.20;96372.95;106356;1284;142274;-79
2022/07/01 03:20:41;;;;;;;9.10;5.50;;;;;;;20.71;58.08;96371.08;106443;1284;42275;-79
2022/07/01 03:23:13;;;;;;;6.10;4.90;;;;;;;20.71;57.99;96372.84;105487;1284;1168112;-79
2022/07/01 03:25:44;;;;;;;7.30;5.50;;;;;;;20.75;57.88;96370.09;106470;1283;114027;-79
2022/07/01 03:28:17;;;;;;;8.20;5.30;;;;;;;20.83;57.95;96368.48;106468;1284;114176;-79
2022/07/01 03:30:48;;;;;;;6.30;5.60;;;;;;;20.92;58.07;96371.61;106651;1284;52279;-79
2022/07/01 03:33:19;;;;;;;7.00;6.20;;;;;;;21.00;58.19;96369.35;106633;1284;103622;-79
2022/07/01 03:35:51;;;;;;;6.90;6.30;;;;;;;21.07;58.17;96370.41;106587;1284;126432;-79
2022/07/01 03:38:22;;;;;;;7.10;5.50;;;;;;;21.10;57.91;96363.07;104971;1284;2312969;-79
2022/07/01 03:40:53;;;;;;;5.90;4.70;;;;;;;21.12;57.96;96361.06;106210;1284;137979;-79
2022/07/01 03:43:24;;;;;;;6.50;4.80;;;;;;;21.16;57.92;96362.52;106542;1284;72864;-79
2022/07/01 03:45:58;;;;;;;6.20;4.70;;;;;;;21.16;57.86;96364.06;106499;1283;140639;-79
2022/07/01 03:48:29;;;;;;;7.80;5.40;;;;;;;21.18;57.84;96363.66;106234;1285;102811;-79
2022/07/01 03:51:00;;;;;;;7.80;6.10;;;;;;;21.28;57.74;96366.44;106548;1283;49060;-79
2022/07/01 03:56:19;;;;;;;7.70;6.30;;;;;;;21.53;57.98;96372.89;106471;1284;65763;-78
2022/07/01 03:58:51;;;;;;;8.20;6.30;;;;;;;21.64;58.08;96374.25;106546;1284;88791;-79
2022/07/01 04:01:22;;;;;;;10.20;6.10;;;;;;;21.72;58.40;96376.73;106558;1281;95567;-79
2022/07/01 04:03:56;;;;;;;7.00;5.50;;;;;;;21.80;58.59;96373.88;106619;1281;58384;-79
2022/07/01 04:06:27;;;;;;;7.80;6.60;;;;;;;21.88;58.69;96374.29;106560;1282;85147;-78
2022/07/01 04:08:58;;;;;;;8.00;6.60;;;;;;;21.97;58.38;96374.43;106609;1284;56377;-78
2022/07/01 04:11:30;;;;;;;7.50;6.70;;;;;;;22.07;58.27;96374.79;106568;1281;90034;-79
2022/07/01 04:14:02;;;;;;;8.20;6.80;;;;;;;22.17;58.18;96377.30;106674;1281;50796;-79
2022/07/01 04:16:33;;;;;;;8.30;6.40;;;;;;;22.26;57.95;96379.39;106614;1283;57750;-79
2022/07/01 04:19:06;;;;;;;9.00;7.00;;;;;;;22.35;57.99;96385.73;106675;1281;85297;-78
2022/07/01 04:24:26;;;;;;;10.80;7.30;;;;;;;22.61;58.05;96380.75;106931;1281;34913;-79
2022/07/01 04:26:58;;;;;;;9.00;7.10;;;;;;;22.72;58.03;96379.39;106875;1283;44866;-79
2022/07/01 04:29:30;;;;;;;8.20;6.90;;;;;;;22.84;57.92;96379.21;106831;1282;65889;-79
2022/07/01 04:32:01;;;;;;;7.90;7.10;;;;;;;22.99;57.63;96379.60;106856;1281;51621;-79
2022/07/01 04:34:32;;;;;;;9.40;6.60;;;;;;;23.11;57.27;96380.63;106784;1281;64507;-79
2022/07/01 04:37:04;;;;;;;7.90;7.10;;;;;;;23.22;57.14;96381.94;106902;1284;39200;-79
2022/07/01 04:39:35;;;;;;;8.30;6.40;;;;;;;23.27;57.19;96381.09;106738;1282;64435;-79
2022/07/01 04:42:07;;;;;;;6.90;6.20;;;;;;;23.41;57.43;96380.65;106867;1281;38727;-78
2022/07/01 04:44:40;;;;;;;7.40;6.50;;;;;;;23.52;57.48;96380.39;106844;1282;57854;-79
2022/07/01 04:47:12;;;;;;;7.60;6.50;;;;;;;23.60;57.47;96377.58;106782;1282;77493;-79
2022/07/01 04:49:43;;;;;;;8.30;6.40;;;;;;;23.72;57.65;96382.84;106671;1282;32384;-79
2022/07/01 04:52:14;;;;;;;6.90;6.30;;;;;;;23.88;57.44;96382.48;106427;1284;140811;-78
2022/07/01 04:54:46;;;;;;;10.20;6.60;;;;;;;24.06;57.09;96389.33;106732;1281;35423;-78
2022/07/01 04:57:17;;;;;;;7.90;6.20;;;;;;;24.26;57.11;96386.30;106543;1281;82250;-78
2022/07/01 04:59:48;;;;;;;7.90;6.40;;;;;;;24.50;56.82;96386.85;106971;1282;30903;-79
2022/07/01 05:02:19;;;;;;;6.80;5.90;;;;;;;24.76;56.04;96387.38;106935;1284;54352;-78
2022/07/01 05:04:50;;;;;;;7.60;6.40;;;;;;;24.98;55.11;96383.22;106770;1284;75397;-79
2022/07/01 05:07:31;;;;;;;6.90;6.10;;;;;;;25.17;54.39;96384.52;106663;1284;32342;-79
2022/07/01 05:10:03;;;;;;;7.90;6.30;;;;;;;25.34;54.13;96387.02;106607;1284;40855;-78
2022/07/01 05:12:34;;;;;;;8.00;5.80;;;;;;;25.56;53.82;96390.00;106585;1284;40135;-78
2022/07/01 05:15:08;;;;;;;6.30;5.30;;;;;;;25.90;52.91;96386.75;106595;1284;51857;-78
2022/07/01 05:23:31;;;;;;;11.50;5.80;;;;;;;27.15;50.18;96386.05;106279;1287;93189;-79
2022/07/01 05:26:03;;;;;;;7.80;5.10;;;;;;;28.70;49.40;96389.07;106367;1284;160000;-79
2022/07/01 05:28:34;;;;;;;7.80;5.10;;;;;;;31.02;45.86;96382.33;106563;1284;53961;-79
2022/07/01 05:31:05;;;;;;;5.00;4.50;;;;;;;33.24;43.95;96382.77;106475;1282;82816;-79
2022/07/01 05:33:37;;;;;;;8.10;4.90;;;;;;;35.46;40.95;96381.41;106862;1284;36566;-79
2022/07/01 05:36:09;;;;;;;4.90;4.20;;;;;;;37.25;38.19;96382.70;106820;1284;50622;-79
2022/07/01 05:38:44;;;;;;;4.40;4.00;;;;;;;39.00;36.20;96378.17;106746;1284;50256;-78
2022/07/01 05:41:17;;;;;;;4.40;3.90;;;;;;;40.70;34.21;96372.66;106746;1284;105230;-79
2022/07/01 05:43:48;;;;;;;6.50;3.90;;;;;;;42.13;31.99;96373.88;106836;1284;68157;-80
2022/07/01 05:46:19;;;;;;;4.10;3.70;;;;;;;43.07;30.16;96377.17;106890;1284;51990;-80
2022/07/01 05:48:51;;;;;;;6.20;3.90;;;;;;;44.25;29.40;96373.31;106768;1284;77598;-79
2022/07/01 05:51:23;;;;;;;3.90;3.30;;;;;;;45.38;28.02;96378.52;106867;1284;57491;-80
2022/07/01 05:53:56;;;;;;;5.60;3.00;;;;;;;46.24;26.30;96378.73;106775;1284;121304;-80
2022/07/01 05:56:27;;;;;;;5.10;3.30;;;;;;;46.83;25.04;96377.77;106836;1284;77368;-80
2022/07/01 05:58:59;;;;;;;3.30;3.10;;;;;;;47.55;24.33;96376.10;106717;1284;96538;-80
2022/07/01 06:01:30;;;;;;;5.20;3.80;;;;;;;47.48;23.21;96375.48;106786;1283;52191;-80
2022/07/01 06:04:02;;;;;;;5.30;3.60;;;;;;;46.60;23.09;96377.70;106837;1284;49388;-80
2022/07/01 06:06:34;;;;;;;4.90;3.40;;;;;;;47.21;23.29;96374.98;105443;1284;1689787;-80
2022/07/01 06:09:06;;;;;;;6.20;3.70;;;;;;;48.11;22.20;96370.17;106572;1284;102360;-78
2022/07/01 06:11:37;;;;;;;5.50;3.50;;;;;;;48.64;22.10;96365.92;106629;1284;38333;-78
2022/07/01 06:14:09;;;;;;;3.80;3.50;;;;;;;48.85;21.08;96368.15;106414;1284;86098;-78
2022/07/01 06:16:40;;;;;;;5.90;3.70;;;;;;;48.87;21.05;96366.30;106546;1284;130851;-78
2022/07/01 06:19:11;;;;;;;5.80;3.50;;;;;;;49.74;20.98;96362.04;106369;1284;99394;-78
2022/07/01 06:21:43;;;;;;;9.90;3.80;;;;;;;50.18;20.10;96359.90;106313;1284;110567;-78
2022/07/01 06:24:14;;;;;;;8.20;3.80;;;;;;;49.32;19.65;96360.80;106548;1284;68384;-78
2022/07/01 06:26:46;;;;;;;5.70;3.10;;;;;;;49.59;20.26;96358.92;106480;1284;107045;-78
2022/07/01 06:29:18;;;;;;;6.90;3.50;;;;;;;50.13;19.26;96361.54;106672;1284;32819;-78
2022/07/01 06:31:49;;;;;;;6.80;3.40;;;;;;;49.38;19.22;96358.98;106417;1284;118233;-79
2022/07/01 06:34:21;;;;;;;3.70;3.00;;;;;;;49.29;19.05;96356.06;106569;1284;35744;-79
2022/07/01 06:36:52;;;;;;;4.10;3.10;;;;;;;49.20;18.79;96355.44;106520;1283;78796;-78
2022/07/01 06:39:23;;;;;;;5.20;2.80;;;;;;;49.86;18.92;96359.20;106623;1283;38615;-79
2022/07/01 06:41:54;;;;;;;3.90;2.60;;;;;;;51.14;18.39;96364.48;106287;1284;108202;-78
2022/07/01 06:44:26;;;;;;;3.20;2.90;;;;;;;52.15;17.71;96366.60;106622;1284;46199;-79
2022/07/01 06:46:57;;;;;;;3.40;3.00;;;;;;;52.85;16.89;96360.20;106443;1284;73460;-79
2022/07/01 06:49:28;;;;;;;3.40;2.80;;;;;;;53.16;16.40;96358.73;106741;1283;36521;-79
2022/07/01 06:52:00;;;;;;;7.20;2.80;;;;;;;53.44;16.34;96362.77;106658;1284;71381;-79
2022/07/01 06:54:32;;;;;;;3.20;2.40;;;;;;;54.14;15.98;96359.34;106581;1284;119121;-79
2022/07/01 06:57:03;;;;;;;5.20;3.00;;;;;;;53.99;14.80;96357.79;106789;1284;50269;-79
2022/07/01 06:59:35;;;;;;;3.30;2.90;;;;;;;54.07;15.30;96357.23;106656;1284;129782;-79
2022/07/01 07:02:07;;;;;;;5.40;3.30;;;;;;;54.61;14.99;96358.44;106915;1284;36747;-79
2022/07/01 07:04:39;;;;;;;3.80;3.00;;;;;;;54.78;14.85;96357.68;105911;1282;1204883;-79
2022/07/01 07:07:10;;;;;;;3.40;3.00;;;;;;;55.14;14.48;96362.27;106926;1281;34175;-79
2022/07/01 07:09:41;;;;;;;3.90;3.00;;;;;;;55.18;14.44;96357.45;106701;1284;108075;-79
2022/07/01 07:12:13;;;;;;;6.00;3.00;;;;;;;55.40;14.27;96356.55;106843;1284;88745;-79
2022/07/01 07:14:45;;;;;;;5.40;3.10;;;;;;;55.86;13.87;96357.08;106849;1284;73320;-79
2022/07/01 07:17:19;;;;;;;3.90;3.00;;;;;;;55.49;12.94;96356.23;106755;1284;89742;-80
2022/07/01 07:19:51;;;;;;;3.20;2.90;;;;;;;54.53;12.83;96352.93;107030;1282;50555;-79
2022/07/01 07:22:23;;;;;;;6.60;3.20;;;;;;;52.30;10.97;96349.98;107007;1283;38621;-79
2022/07/01 07:24:55;;;;;;;4.40;2.90;;;;;;;48.89;12.23;96345.51;106852;1283;41171;-79
2022/07/01 07:27:26;;;;;;;5.50;2.90;;;;;;;46.68;13.44;96344.89;106664;1284;57041;-79
2022/07/01 07:30:00;;;;;;;5.50;2.90;;;;;;;45.34;14.36;96342.77;106689;1284;31023;-79
2022/07/01 07:32:32;;;;;;;5.00;3.00;;;;;;;44.55;14.92;96341.70;106552;1284;109318;-79
2022/07/01 07:35:03;;;;;;;4.00;2.80;;;;;;;44.39;14.96;96340.14;106565;1284;98854;-79
2022/07/01 07:37:34;;;;;;;4.60;2.80;;;;;;;44.22;15.61;96339.08;106709;1284;29779;-79
2022/07/01 07:40:12;;;;;;;5.60;2.90;;;;;;;44.86;15.85;96340.04;106591;1284;42511;-79
2022/07/01 07:42:43;;;;;;;4.70;2.60;;;;;;;45.80;15.13;96339.04;106699;1284;37928;-79
2022/07/01 07:45:15;;;;;;;7.50;2.80;;;;;;;46.15;14.66;96344.90;106566;1284;112220;-79
2022/07/01 07:47:49;;;;;;;3.40;3.00;;;;;;;45.44;14.79;96343.06;106688;1284;35874;-79
2022/07/01 07:50:22;;;;;;;3.90;2.80;;;;;;;44.58;15.54;96339.67;106701;1282;68562;-79
2022/07/01 07:52:53;;;;;;;4.90;3.50;;;;;;;44.54;15.75;96342.00;106606;1284;54230;-79
2022/07/01 07:55:24;;;;;;;5.10;3.10;;;;;;;44.42;15.59;96340.58;106429;1284;33512;-79
2022/07/01 07:57:56;;;;;;;4.80;3.20;;;;;;;44.32;16.18;96338.32;106651;1284;66254;-79
2022/07/01 08:00:28;;;;;;;5.70;3.60;;;;;;;45.12;16.25;96335.20;106615;1281;38838;-79
2022/07/01 08:03:02;;;;;;;6.50;3.50;;;;;;;45.53;15.26;96333.66;106593;1281;63991;-79
2022/07/01 08:05:33;;;;;;;6.10;3.40;;;;;;;44.60;15.92;96338.16;106644;1284;51418;-79
2022/07/01 08:08:05;;;;;;;4.90;3.30;;;;;;;43.86;16.62;96338.11;106567;1284;50455;-79
2022/07/01 08:10:36;;;;;;;6.90;3.60;;;;;;;43.76;17.02;96337.84;106657;1282;43370;-79
2022/07/01 08:13:08;;;;;;;6.40;3.70;;;;;;;44.21;16.35;96335.75;106713;1281;31339;-79
2022/07/01 08:15:43;;;;;;;7.70;3.60;;;;;;;44.34;16.59;96333.17;106635;1282;54679;-79
2022/07/01 08:18:14;;;;;;;4.90;3.50;;;;;;;44.88;16.03;96330.59;106651;1282;33717;-79
2022/07/01 08:20:46;;;;;;;5.20;3.60;;;;;;;44.29;16.17;96337.86;106630;1282;56448;-79
2022/07/01 08:23:18;;;;;;;5.10;3.50;;;;;;;43.92;16.54;96332.11;106676;1282;38704;-79
2022/07/01 08:25:50;;;;;;;5.00;3.60;;;;;;;43.78;16.64;96330.83;106728;1284;56211;-79
2022/07/01 08:28:23;;;;;;;7.20;3.70;;;;;;;43.71;16.50;96336.05;106676;1281;89582;-80
2022/07/01 08:30:54;;;;;;;4.70;3.30;;;;;;;43.85;16.62;96336.12;106741;1282;36431;-79
2022/07/01 08:33:26;;;;;;;5.50;2.90;;;;;;;44.53;16.44;96332.60;106547;1284;76098;-78
2022/07/01 08:35:57;;;;;;;5.50;2.90;;;;;;;44.21;16.41;96335.77;106704;1282;33634;-79
2022/07/01 08:38:29;;;;;;;6.20;3.20;;;;;;;43.89;16.70;96328.51;106638;1282;53122;-79
2022/07/01 08:41:01;;;;;;;5.30;3.20;;;;;;;44.20;16.32;96330.05;106708;1281;30443;-79
2022/07/01 08:43:33;;;;;;;7.60;3.20;;;;;;;43.98;16.08;96329.63;106645;1282;59116;-79
2022/07/01 08:46:05;;;;;;;3.80;2.70;;;;;;;44.22;16.45;96326.73;106708;1282;37541;-79
2022/07/01 08:48:36;;;;;;;4.70;3.10;;;;;;;44.27;15.91;96326.07;106534;1281;127995;-79
2022/07/01 08:51:07;;;;;;;5.20;3.30;;;;;;;44.07;16.55;96326.33;106714;1282;36577;-79
2022/07/01 08:53:41;;;;;;;6.50;2.90;;;;;;;43.87;16.69;96323.33;106580;1284;46259;-79
2022/07/01 08:59:02;;;;;;;8.20;3.30;;;;;;;40.96;18.70;96327.66;106690;1281;47997;-79
2022/07/01 09:01:33;;;;;;;6.80;3.90;;;;;;;39.45;19.71;96321.89;106625;1281;34649;-79
2022/07/01 09:04:19;;;;;;;7.80;3.90;;;;;;;38.25;20.78;96319.92;106798;1284;81072;-80
2022/07/01 09:06:52;;;;;;;7.90;4.20;;;;;;;37.45;22.09;96318.49;106957;1281;40226;-80
2022/07/01 09:09:24;;;;;;;7.10;3.80;;;;;;;36.98;22.45;96320.36;106757;1284;31736;-81
2022/07/01 09:11:57;;;;;;;7.50;3.80;;;;;;;36.62;23.23;96324.15;106667;1284;79530;-80
2022/07/01 09:14:30;;;;;;;8.20;4.00;;;;;;;36.36;23.74;96322.33;106966;1281;43035;-81
2022/07/01 09:17:03;;;;;;;11.60;4.40;;;;;;;36.04;23.67;96319.00;106837;1281;67568;-81
2022/07/01 09:19:36;;;;;;;11.00;4.10;;;;;;;35.82;24.08;96316.29;106932;1281;41024;-80
2022/07/01 09:22:08;;;;;;;7.50;3.90;;;;;;;35.62;24.23;96316.16;107013;1281;33855;-81
2022/07/01 09:24:42;;;;;;;6.60;4.30;;;;;;;35.68;24.90;96315.07;106934;1281;36976;-79
2022/07/01 09:27:16;;;;;;;6.90;4.00;;;;;;;35.86;24.42;96315.67;106754;1281;36322;-80
2022/07/01 09:29:50;;;;;;;10.10;4.40;;;;;;;35.83;24.70;96319.61;106858;1282;76604;-81
2022/07/01 09:32:23;;;;;;;10.70;3.90;;;;;;;35.81;24.44;96319.92;107050;1282;30387;-80
2022/07/01 09:34:55;;;;;;;9.70;4.30;;;;;;;35.74;24.86;96322.64;106831;1281;49090;-79
2022/07/01 09:37:27;;;;;;;7.30;4.00;;;;;;;35.62;24.24;96320.48;106894;1281;45070;-82
2022/07/01 09:39:59;;;;;;;9.20;3.90;;;;;;;35.51;24.80;96315.92;106984;1284;30603;-80
2022/07/01 09:42:33;;;;;;;7.30;3.90;;;;;;;35.41;24.65;96323.04;107100;1281;46738;-81
2022/07/01 09:45:09;;;;;;;7.50;3.90;;;;;;;35.34;24.73;96317.29;107047;1281;43317;-80
2022/07/01 09:47:43;;;;;;;9.80;3.90;;;;;;;35.47;24.40;96317.34;107086;1282;46948;-79
2022/07/01 09:50:17;;;;;;;10.30;4.30;;;;;;;35.38;24.39;96314.34;107040;1282;36308;-79
2022/07/01 09:52:49;;;;;;;7.90;4.00;;;;;;;35.27;24.72;96315.73;106599;1282;47417;-78
2022/07/01 09:55:20;;;;;;;5.30;3.60;;;;;;;35.19;24.28;96315.63;106724;1284;43177;-79
2022/07/01 09:57:52;;;;;;;6.80;3.50;;;;;;;35.22;24.55;96309.78;106647;1284;35191;-79
2022/07/01 10:00:25;;;;;;;7.60;4.10;;;;;;;35.27;24.51;96312.52;106707;1284;35529;-79
2022/07/01 10:02:58;;;;;;;8.10;3.60;;;;;;;35.37;24.58;96310.91;106595;1281;77283;-80
2022/07/01 10:05:32;;;;;;;7.90;3.80;;;;;;;35.53;25.37;96312.95;106649;1284;48065;-79
2022/07/01 10:08:31;;;;;;;5.90;3.50;;;;;;;35.74;24.38;96312.02;106676;1284;36656;-78
2022/07/01 10:11:25;;;;;;;5.70;3.50;;;;;;;35.46;23.60;96311.93;106665;1284;43919;-79
2022/07/01 10:13:58;;;;;;;8.10;3.30;;;;;;;35.28;23.93;96309.71;106679;1284;33338;-79
2022/07/01 10:16:30;;;;;;;7.50;3.90;;;;;;;35.24;23.84;96309.88;106644;1284;51107;-79
2022/07/01 10:19:06;;;;;;;6.40;3.40;;;;;;;35.31;24.32;96299.86;106617;1284;55048;-79
2022/07/01 10:21:38;;;;;;;7.40;3.50;;;;;;;35.51;24.31;96297.91;106602;1284;55801;-79
2022/07/01 10:24:17;;;;;;;8.10;3.30;;;;;;;35.44;23.93;96294.56;106599;1284;59389;-78
2022/07/01 10:26:48;;;;;;;6.70;3.90;;;;;;;35.18;24.58;96298.59;106670;1284;44634;-78
2022/07/01 10:29:39;;;;;;;8.50;4.00;;;;;;;35.01;24.34;96297.82;106734;1282;29994;-79
2022/07/01 10:32:28;;;;;;;9.40;4.80;;;;;;;34.83;24.52;96294.73;106404;1281;90687;-79
2022/07/01 10:35:08;;;;;;;8.50;5.10;;;;;;;34.64;26.05;96293.88;106046;1281;62339;-80
2022/07/01 10:37:59;;;;;;;7.40;4.70;;;;;;;34.45;27.05;96294.48;107027;1281;36553;-79
2022/07/01 10:40:46;;;;;;;8.60;5.50;;;;;;;34.64;27.31;96292.14;107017;1284;47247;-80
2022/07/01 10:43:32;;;;;;;9.20;5.10;;;;;;;34.95;28.40;96294.33;105886;1284;1552076;-80
2022/07/01 10:46:04;;;;;;;10.10;5.40;;;;;;;35.09;27.91;96290.84;107001;1281;35097;-80
2022/07/01 10:48:38;;;;;;;7.60;5.10;;;;;;;34.73;27.71;96288.45;106933;1284;59827;-79
2022/07/01 10:51:17;;;;;;;5.90;4.40;;;;;;;34.30;27.60;96283.70;106856;1284;45446;-80
2022/07/01 10:53:50;;;;;;;8.90;5.30;;;;;;;33.95;27.66;96277.32;106574;1284;39178;-80
2022/07/01 10:56:38;;;;;;;11.80;5.60;;;;;;;33.69;28.08;96281.39;106663;1284;35997;-80
2022/07/01 10:59:20;;;;;;;11.30;7.80;;;;;;;33.48;29.13;96283.27;106319;1282;65567;-81
2022/07/01 11:01:51;;;;;;;11.30;8.50;;;;;;;33.35;32.57;96290.30;106309;1284;40439;-80
2022/07/01 11:04:28;;;;;;;10.70;8.70;;;;;;;33.26;33.69;96294.30;106562;1284;34439;-80
2022/07/01 11:06:59;;;;;;;10.60;9.00;;;;;;;33.13;34.96;96297.40;106290;1284;260741;-80
2022/07/01 11:09:33;;;;;;;12.90;9.30;;;;;;;33.02;35.38;96294.88;106453;1283;41752;-80
2022/07/01 11:12:12;;;;;;;12.00;9.60;;;;;;;32.97;35.42;96291.79;106319;1284;53963;-80
2022/07/01 11:14:44;;;;;;;10.60;9.20;;;;;;;32.87;35.94;96293.47;106377;1284;81755;-80
2022/07/01 11:17:17;;;;;;;12.20;9.30;;;;;;;32.69;36.36;96293.75;106425;1284;46318;-80
2022/07/01 11:19:53;;;;;;;10.30;9.20;;;;;;;32.55;36.42;96296.70;106486;1284;32009;-79
2022/07/01 11:22:30;;;;;;;10.70;8.60;;;;;;;32.48;36.48;96294.96;106400;1284;32644;-80
2022/07/01 11:25:03;;;;;;;10.40;8.60;;;;;;;32.42;36.58;96294.49;105503;1284;1269198;-79
2022/07/01 11:27:35;;;;;;;10.60;8.50;;;;;;;32.40;36.77;96296.96;106494;1284;39968;-80
2022/07/01 11:30:12;;;;;;;9.60;8.70;;;;;;;32.41;36.89;96296.17;106367;1284;29398;-80
2022/07/01 11:32:45;;;;;;;9.70;8.30;;;;;;;32.32;36.73;96295.51;106411;1284;37424;-79
2022/07/01 11:41:04;;;;;;;10.30;8.30;;;;;;;32.70;36.55;96282.11;106431;1284;29073;-80
2022/07/01 11:43:37;;;;;;;8.80;8.00;;;;;;;32.76;36.22;96280.92;106247;1283;81668;-79
2022/07/01 11:46:10;;;;;;;9.10;8.20;;;;;;;32.65;36.03;96286.34;106492;1284;40551;-79
2022/07/01 11:48:45;;;;;;;10.00;7.60;;;;;;;32.50;36.03;96291.62;106491;1282;35288;-79
2022/07/01 11:51:18;;;;;;;8.30;7.50;;;;;;;32.44;36.42;96291.14;106565;1284;66832;-78
2022/07/01 11:53:54;;;;;;;8.20;7.40;;;;;;;32.40;36.32;96293.37;106696;1284;43579;-79
2022/07/01 11:56:38;;;;;;;10.20;7.40;;;;;;;32.74;36.67;96292.36;106679;1284;31460;-79
2022/07/01 11:59:09;;;;;;;11.80;7.60;;;;;;;32.91;35.62;96291.72;106678;1284;67417;-79
2022/07/01 12:01:41;;;;;;;8.60;6.70;;;;;;;32.61;35.75;96297.71;106710;1284;34989;-78
2022/07/01 12:04:16;;;;;;;8.50;7.00;;;;;;;32.29;35.78;96286.17;106643;1284;32808;-79
2022/07/01 12:06:49;;;;;;;10.50;6.80;;;;;;;32.05;35.99;96292.99;106646;1284;39262;-80